sensor_id;sensor_type;location;lat;lon;timestamp;pressure;altitude;pressure_sealevel;temperature;humidity
75794;BME280;64418;47.536;19.074;2022-12-18T00:00:08;101696.81;;;-3.54;88.18
75794;BME280;64418;47.536;19.074;2022-12-18T00:02:35;101702.28;;;-3.57;88.29
75794;BME280;64418;47.536;19.074;2022-12-18T00:05:01;101703.88;;;-3.54;88.30
75794;BME280;64418;47.536;19.074;2022-12-18T00:07:27;101706.34;;;-3.51;87.92
75794;BME280;64418;47.536;19.074;2022-12-18T00:09:54;101716.69;;;-3.62;88.52
75794;BME280;64418;47.536;19.074;2022-12-18T00:12:21;101722.25;;;-3.67;88.66
75794;BME280;64418;47.536;19.074;2022-12-18T00:14:47;101726.84;;;-3.70;88.84
75794;BME280;64418;47.536;19.074;2022-12-18T00:17:13;101735.91;;;-3.74;88.87
75794;BME280;64418;47.536;19.074;2022-12-18T00:19:41;101738.84;;;-3.80;89.15
75794;BME280;64418;47.536;19.074;2022-12-18T00:22:06;101749.91;;;-3.72;88.68
75794;BME280;64418;47.536;19.074;2022-12-18T00:24:32;101760.47;;;-3.72;88.57
75794;BME280;64418;47.536;19.074;2022-12-18T00:26:57;101767.28;;;-3.84;88.96
75794;BME280;64418;47.536;19.074;2022-12-18T00:29:23;101776.56;;;-3.93;89.19
75794;BME280;64418;47.536;19.074;2022-12-18T00:31:49;101780.75;;;-3.89;89.34
75794;BME280;64418;47.536;19.074;2022-12-18T00:34:16;101783.09;;;-3.82;88.86
75794;BME280;64418;47.536;19.074;2022-12-18T00:36:43;101781.72;;;-3.90;89.16
75794;BME280;64418;47.536;19.074;2022-12-18T00:39:10;101779.53;;;-3.81;88.89
75794;BME280;64418;47.536;19.074;2022-12-18T00:41:36;101781.59;;;-3.88;88.96
75794;BME280;64418;47.536;19.074;2022-12-18T00:44:03;101783.09;;;-3.82;88.84
75794;BME280;64418;47.536;19.074;2022-12-18T00:46:29;101780.75;;;-3.89;88.99
75794;BME280;64418;47.536;19.074;2022-12-18T00:48:55;101779.88;;;-3.72;88.48
75794;BME280;64418;47.536;19.074;2022-12-18T00:51:21;101784.03;;;-3.83;88.58
75794;BME280;64418;47.536;19.074;2022-12-18T00:53:48;101787.47;;;-3.81;88.58
75794;BME280;64418;47.536;19.074;2022-12-18T00:56:14;101789.31;;;-3.83;88.56
75794;BME280;64418;47.536;19.074;2022-12-18T00:58:40;101787.88;;;-3.89;88.70
75794;BME280;64418;47.536;19.074;2022-12-18T01:01:06;101791.97;;;-3.83;88.47
75794;BME280;64418;47.536;19.074;2022-12-18T01:03:32;101798.19;;;-3.84;88.43
75794;BME280;64418;47.536;19.074;2022-12-18T01:05:57;101807.84;;;-3.83;88.60
75794;BME280;64418;47.536;19.074;2022-12-18T01:08:24;101809.25;;;-3.94;88.86
75794;BME280;64418;47.536;19.074;2022-12-18T01:10:51;101813.13;;;-3.83;88.54
75794;BME280;64418;47.536;19.074;2022-12-18T01:13:17;101808.06;;;-3.88;88.65
75794;BME280;64418;47.536;19.074;2022-12-18T01:15:48;101816.25;;;-3.93;88.87
75794;BME280;64418;47.536;19.074;2022-12-18T01:18:13;101809.72;;;-4.03;88.98
75794;BME280;64418;47.536;19.074;2022-12-18T01:20:39;101820.09;;;-3.98;89.28
75794;BME280;64418;47.536;19.074;2022-12-18T01:23:05;101828.72;;;-3.95;89.25
75794;BME280;64418;47.536;19.074;2022-12-18T01:25:31;101828.03;;;-3.98;89.43
75794;BME280;64418;47.536;19.074;2022-12-18T01:27:58;101827.97;;;-3.97;89.53
75794;BME280;64418;47.536;19.074;2022-12-18T01:30:24;101825.16;;;-3.94;89.36
75794;BME280;64418;47.536;19.074;2022-12-18T01:32:49;101813.59;;;-3.93;89.20
75794;BME280;64418;47.536;19.074;2022-12-18T01:35:15;101823.97;;;-3.88;89.24
75794;BME280;64418;47.536;19.074;2022-12-18T01:37:40;101824.06;;;-3.90;89.15
75794;BME280;64418;47.536;19.074;2022-12-18T01:40:07;101831.03;;;-3.89;89.14
75794;BME280;64418;47.536;19.074;2022-12-18T01:42:33;101825.22;;;-3.95;89.25
75794;BME280;64418;47.536;19.074;2022-12-18T01:45:04;101835.72;;;-3.94;89.30
75794;BME280;64418;47.536;19.074;2022-12-18T01:47:35;101836.03;;;-4.00;89.39
75794;BME280;64418;47.536;19.074;2022-12-18T01:50:06;101848.41;;;-4.00;89.68
75794;BME280;64418;47.536;19.074;2022-12-18T01:52:33;101843.19;;;-4.02;89.54
75794;BME280;64418;47.536;19.074;2022-12-18T01:55:00;101843.34;;;-4.05;89.52
75794;BME280;64418;47.536;19.074;2022-12-18T01:57:28;101847.78;;;-3.88;89.16
75794;BME280;64418;47.536;19.074;2022-12-18T01:59:59;101841.31;;;-4.00;89.25
75794;BME280;64418;47.536;19.074;2022-12-18T02:02:28;101850.59;;;-3.91;89.21
75794;BME280;64418;47.536;19.074;2022-12-18T02:04:54;101853.06;;;-3.88;88.98
75794;BME280;64418;47.536;19.074;2022-12-18T02:07:24;101861.25;;;-3.75;88.64
75794;BME280;64418;47.536;19.074;2022-12-18T02:09:56;101856.28;;;-3.81;88.80
75794;BME280;64418;47.536;19.074;2022-12-18T02:12:29;101855.81;;;-3.90;88.82
75794;BME280;64418;47.536;19.074;2022-12-18T02:15:02;101868.88;;;-3.86;88.93
75794;BME280;64418;47.536;19.074;2022-12-18T02:17:37;101872.56;;;-3.89;89.10
75794;BME280;64418;47.536;19.074;2022-12-18T02:20:11;101875.44;;;-3.94;89.23
75794;BME280;64418;47.536;19.074;2022-12-18T02:22:45;101878.53;;;-4.03;89.61
75794;BME280;64418;47.536;19.074;2022-12-18T02:25:25;101876.34;;;-3.95;89.89
75794;BME280;64418;47.536;19.074;2022-12-18T02:27:58;101883.97;;;-4.06;89.96
75794;BME280;64418;47.536;19.074;2022-12-18T02:30:26;101882.72;;;-4.16;90.30
75794;BME280;64418;47.536;19.074;2022-12-18T02:32:53;101883.34;;;-4.11;90.14
75794;BME280;64418;47.536;19.074;2022-12-18T02:35:23;101888.16;;;-4.19;90.43
75794;BME280;64418;47.536;19.074;2022-12-18T02:37:49;101888.63;;;-4.28;90.83
75794;BME280;64418;47.536;19.074;2022-12-18T02:40:21;101889.97;;;-4.19;90.75
75794;BME280;64418;47.536;19.074;2022-12-18T02:42:47;101894.31;;;-4.18;90.75
75794;BME280;64418;47.536;19.074;2022-12-18T02:45:17;101894.47;;;-4.21;90.79
75794;BME280;64418;47.536;19.074;2022-12-18T02:47:47;101898.72;;;-4.19;90.75
75794;BME280;64418;47.536;19.074;2022-12-18T02:50:19;101903.25;;;-4.21;90.77
75794;BME280;64418;47.536;19.074;2022-12-18T02:52:55;101902.31;;;-4.20;90.80
75794;BME280;64418;47.536;19.074;2022-12-18T02:55:32;101912.44;;;-4.28;90.99
75794;BME280;64418;47.536;19.074;2022-12-18T02:58:05;101918.00;;;-4.34;91.25
75794;BME280;64418;47.536;19.074;2022-12-18T03:00:41;101926.94;;;-4.37;91.43
75794;BME280;64418;47.536;19.074;2022-12-18T03:03:13;101922.19;;;-4.30;91.52
75794;BME280;64418;47.536;19.074;2022-12-18T03:05:44;101925.47;;;-4.42;91.76
75794;BME280;64418;47.536;19.074;2022-12-18T03:08:17;101925.31;;;-4.39;91.71
75794;BME280;64418;47.536;19.074;2022-12-18T03:10:48;101931.00;;;-4.29;91.40
75794;BME280;64418;47.536;19.074;2022-12-18T03:13:18;101934.81;;;-4.35;91.63
75794;BME280;64418;47.536;19.074;2022-12-18T03:15:49;101938.22;;;-4.33;91.64
75794;BME280;64418;47.536;19.074;2022-12-18T03:18:19;101936.13;;;-4.26;91.48
75794;BME280;64418;47.536;19.074;2022-12-18T03:20:48;101937.00;;;-4.26;91.36
75794;BME280;64418;47.536;19.074;2022-12-18T03:23:18;101927.44;;;-4.28;91.29
75794;BME280;64418;47.536;19.074;2022-12-18T03:25:46;101943.38;;;-4.30;91.38
75794;BME280;64418;47.536;19.074;2022-12-18T03:28:16;101954.09;;;-4.33;91.53
75794;BME280;64418;47.536;19.074;2022-12-18T03:30:44;101955.69;;;-4.48;91.70
75794;BME280;64418;47.536;19.074;2022-12-18T03:33:16;101964.25;;;-4.61;92.12
75794;BME280;64418;47.536;19.074;2022-12-18T03:35:43;101960.81;;;-4.63;92.24
75794;BME280;64418;47.536;19.074;2022-12-18T03:38:10;101966.09;;;-4.63;92.49
75794;BME280;64418;47.536;19.074;2022-12-18T03:40:43;101969.09;;;-4.71;92.70
75794;BME280;64418;47.536;19.074;2022-12-18T03:43:17;101982.13;;;-4.66;92.71
75794;BME280;64418;47.536;19.074;2022-12-18T03:45:50;101979.53;;;-4.68;92.70
75794;BME280;64418;47.536;19.074;2022-12-18T03:48:26;101982.25;;;-4.69;92.71
75794;BME280;64418;47.536;19.074;2022-12-18T03:50:56;101981.97;;;-4.63;92.69
75794;BME280;64418;47.536;19.074;2022-12-18T03:53:31;101987.53;;;-4.69;92.69
75794;BME280;64418;47.536;19.074;2022-12-18T03:55:59;101987.22;;;-4.82;93.00
75794;BME280;64418;47.536;19.074;2022-12-18T03:58:26;101981.16;;;-4.84;93.33
75794;BME280;64418;47.536;19.074;2022-12-18T04:00:56;101981.22;;;-4.86;93.61
75794;BME280;64418;47.536;19.074;2022-12-18T04:03:25;101981.22;;;-4.86;93.58
75794;BME280;64418;47.536;19.074;2022-12-18T04:05:52;101985.66;;;-4.86;93.71
75794;BME280;64418;47.536;19.074;2022-12-18T04:08:20;101992.72;;;-4.87;93.63
75794;BME280;64418;47.536;19.074;2022-12-18T04:10:47;102000.66;;;-4.87;93.59
75794;BME280;64418;47.536;19.074;2022-12-18T04:13:21;102004.09;;;-4.84;93.51
75794;BME280;64418;47.536;19.074;2022-12-18T04:15:47;102000.78;;;-4.90;93.58
75794;BME280;64418;47.536;19.074;2022-12-18T04:18:13;101995.25;;;-4.83;93.45
75794;BME280;64418;47.536;19.074;2022-12-18T04:20:40;102000.88;;;-4.91;93.63
75794;BME280;64418;47.536;19.074;2022-12-18T04:23:06;101999.06;;;-4.91;93.64
75794;BME280;64418;47.536;19.074;2022-12-18T04:25:32;102000.00;;;-4.92;93.78
75794;BME280;64418;47.536;19.074;2022-12-18T04:27:58;102007.22;;;-4.95;93.75
75794;BME280;64418;47.536;19.074;2022-12-18T04:30:23;102008.19;;;-4.98;93.88
75794;BME280;64418;47.536;19.074;2022-12-18T04:32:49;102009.25;;;-5.02;93.90
75794;BME280;64418;47.536;19.074;2022-12-18T04:35:15;102008.47;;;-5.04;94.05
75794;BME280;64418;47.536;19.074;2022-12-18T04:37:42;102004.91;;;-5.03;93.92
75794;BME280;64418;47.536;19.074;2022-12-18T04:40:08;102007.28;;;-4.97;93.74
75794;BME280;64418;47.536;19.074;2022-12-18T04:42:34;102014.28;;;-4.96;93.74
75794;BME280;64418;47.536;19.074;2022-12-18T04:45:00;102017.56;;;-4.91;93.52
75794;BME280;64418;47.536;19.074;2022-12-18T04:47:26;102032.12;;;-5.01;93.71
75794;BME280;64418;47.536;19.074;2022-12-18T04:49:52;102023.75;;;-5.10;93.92
75794;BME280;64418;47.536;19.074;2022-12-18T04:52:18;102034.22;;;-5.09;94.04
75794;BME280;64418;47.536;19.074;2022-12-18T04:54:45;102040.19;;;-5.04;94.02
75794;BME280;64418;47.536;19.074;2022-12-18T04:57:10;102040.37;;;-5.08;94.07
75794;BME280;64418;47.536;19.074;2022-12-18T04:59:36;102045.31;;;-5.01;93.93
75794;BME280;64418;47.536;19.074;2022-12-18T05:02:02;102042.63;;;-4.99;93.92
75794;BME280;64418;47.536;19.074;2022-12-18T05:04:28;102040.31;;;-5.07;94.00
75794;BME280;64418;47.536;19.074;2022-12-18T05:06:54;102041.09;;;-5.05;93.93
75794;BME280;64418;47.536;19.074;2022-12-18T05:09:20;102044.78;;;-5.09;93.95
75794;BME280;64418;47.536;19.074;2022-12-18T05:11:47;102050.41;;;-5.16;94.13
75794;BME280;64418;47.536;19.074;2022-12-18T05:14:12;102054.19;;;-5.22;94.32
75794;BME280;64418;47.536;19.074;2022-12-18T05:16:38;102056.81;;;-5.22;94.55
75794;BME280;64418;47.536;19.074;2022-12-18T05:19:04;102058.00;;;-5.29;94.67
75794;BME280;64418;47.536;19.074;2022-12-18T05:21:30;102064.44;;;-5.36;94.82
75794;BME280;64418;47.536;19.074;2022-12-18T05:23:56;102060.22;;;-5.40;95.01
75794;BME280;64418;47.536;19.074;2022-12-18T05:26:22;102054.94;;;-5.40;95.15
75794;BME280;64418;47.536;19.074;2022-12-18T05:28:49;102068.25;;;-5.43;95.46
75794;BME280;64418;47.536;19.074;2022-12-18T05:31:15;102080.00;;;-5.50;95.70
75794;BME280;64418;47.536;19.074;2022-12-18T05:33:41;102076.56;;;-5.52;95.79
75794;BME280;64418;47.536;19.074;2022-12-18T05:36:08;102081.03;;;-5.54;95.90
75794;BME280;64418;47.536;19.074;2022-12-18T05:38:35;102082.03;;;-5.57;96.02
75794;BME280;64418;47.536;19.074;2022-12-18T05:41:02;102083.03;;;-5.59;96.12
75794;BME280;64418;47.536;19.074;2022-12-18T05:43:28;102088.66;;;-5.68;96.33
75794;BME280;64418;47.536;19.074;2022-12-18T05:45:55;102089.03;;;-5.56;96.44
75794;BME280;64418;47.536;19.074;2022-12-18T05:48:22;102085.09;;;-5.67;96.42
75794;BME280;64418;47.536;19.074;2022-12-18T05:50:49;102084.16;;;-5.66;96.55
75794;BME280;64418;47.536;19.074;2022-12-18T05:53:16;102089.91;;;-5.55;96.36
75794;BME280;64418;47.536;19.074;2022-12-18T05:55:43;102102.53;;;-5.63;96.45
75794;BME280;64418;47.536;19.074;2022-12-18T05:58:10;102106.09;;;-5.64;96.57
75794;BME280;64418;47.536;19.074;2022-12-18T06:00:38;102116.03;;;-5.71;96.60
75794;BME280;64418;47.536;19.074;2022-12-18T06:03:05;102112.41;;;-5.68;96.68
75794;BME280;64418;47.536;19.074;2022-12-18T06:05:34;102109.03;;;-5.72;96.76
75794;BME280;64418;47.536;19.074;2022-12-18T06:08:00;102116.91;;;-5.70;96.91
75794;BME280;64418;47.536;19.074;2022-12-18T06:10:26;102116.34;;;-5.57;96.74
75794;BME280;64418;47.536;19.074;2022-12-18T06:12:52;102116.94;;;-5.50;96.49
75794;BME280;64418;47.536;19.074;2022-12-18T06:15:18;102113.97;;;-5.41;96.23
75794;BME280;64418;47.536;19.074;2022-12-18T06:17:43;102112.09;;;-5.39;96.05
75794;BME280;64418;47.536;19.074;2022-12-18T06:20:11;102111.87;;;-5.33;95.67
75794;BME280;64418;47.536;19.074;2022-12-18T06:22:37;102118.63;;;-5.26;95.25
75794;BME280;64418;47.536;19.074;2022-12-18T06:25:04;102131.81;;;-5.26;95.27
75794;BME280;64418;47.536;19.074;2022-12-18T06:27:29;102130.03;;;-5.25;95.02
75794;BME280;64418;47.536;19.074;2022-12-18T06:29:55;102125.66;;;-5.26;95.05
75794;BME280;64418;47.536;19.074;2022-12-18T06:32:23;102129.72;;;-5.18;94.69
75794;BME280;64418;47.536;19.074;2022-12-18T06:34:50;102133.28;;;-5.19;94.53
75794;BME280;64418;47.536;19.074;2022-12-18T06:37:18;102147.03;;;-5.11;94.20
75794;BME280;64418;47.536;19.074;2022-12-18T06:39:44;102149.41;;;-5.05;93.88
75794;BME280;64418;47.536;19.074;2022-12-18T06:42:10;102151.28;;;-5.07;93.68
75794;BME280;64418;47.536;19.074;2022-12-18T06:44:36;102149.53;;;-5.08;93.71
75794;BME280;64418;47.536;19.074;2022-12-18T06:47:02;102149.53;;;-5.08;93.54
75794;BME280;64418;47.536;19.074;2022-12-18T06:49:28;102163.66;;;-5.09;93.51
75794;BME280;64418;47.536;19.074;2022-12-18T06:51:54;102161.84;;;-5.07;93.47
75794;BME280;64418;47.536;19.074;2022-12-18T06:54:21;102167.12;;;-5.07;93.44
75794;BME280;64418;47.536;19.074;2022-12-18T06:56:47;102178.59;;;-5.08;93.42
75794;BME280;64418;47.536;19.074;2022-12-18T06:59:13;102180.56;;;-5.13;93.65
75794;BME280;64418;47.536;19.074;2022-12-18T07:01:39;102188.25;;;-5.07;94.01
75794;BME280;64418;47.536;19.074;2022-12-18T07:04:05;102196.84;;;-5.02;94.16
75794;BME280;64418;47.536;19.074;2022-12-18T07:06:31;102193.00;;;-4.95;94.21
75794;BME280;64418;47.536;19.074;2022-12-18T07:08:57;102189.87;;;-4.82;94.28
75794;BME280;64418;47.536;19.074;2022-12-18T07:11:25;102200.56;;;-4.86;94.21
75794;BME280;64418;47.536;19.074;2022-12-18T07:13:53;102207.62;;;-4.86;93.85
75794;BME280;64418;47.536;19.074;2022-12-18T07:16:19;102211.16;;;-4.86;93.70
75794;BME280;64418;47.536;19.074;2022-12-18T07:18:47;102211.66;;;-4.76;93.43
75794;BME280;64418;47.536;19.074;2022-12-18T07:21:18;102212.87;;;-4.64;93.10
75794;BME280;64418;47.536;19.074;2022-12-18T07:23:44;102213.56;;;-4.59;92.92
75794;BME280;64418;47.536;19.074;2022-12-18T07:26:11;102205.41;;;-4.53;92.62
75794;BME280;64418;47.536;19.074;2022-12-18T07:28:39;102226.00;;;-4.41;92.32
75794;BME280;64418;47.536;19.074;2022-12-18T07:31:07;102223.75;;;-4.30;91.92
75794;BME280;64418;47.536;19.074;2022-12-18T07:33:34;102226.69;;;-4.16;91.45
75794;BME280;64418;47.536;19.074;2022-12-18T07:36:00;102236.59;;;-4.01;91.01
75794;BME280;64418;47.536;19.074;2022-12-18T07:38:26;102242.38;;;-3.93;90.48
75794;BME280;64418;47.536;19.074;2022-12-18T07:40:52;102246.53;;;-3.67;89.68
75794;BME280;64418;47.536;19.074;2022-12-18T07:43:17;102245.78;;;-2.42;87.33
75794;BME280;64418;47.536;19.074;2022-12-18T07:45:45;102259.19;;;1.20;76.98
75794;BME280;64418;47.536;19.074;2022-12-18T07:48:10;102253.47;;;3.86;66.08
75794;BME280;64418;47.536;19.074;2022-12-18T07:50:37;102262.03;;;5.36;59.25
75794;BME280;64418;47.536;19.074;2022-12-18T07:53:03;102259.38;;;6.81;53.68
75794;BME280;64418;47.536;19.074;2022-12-18T07:55:30;102266.94;;;7.75;50.41
75794;BME280;64418;47.536;19.074;2022-12-18T07:57:56;102272.84;;;8.55;47.61
75794;BME280;64418;47.536;19.074;2022-12-18T08:00:22;102282.34;;;9.24;45.18
75794;BME280;64418;47.536;19.074;2022-12-18T08:02:50;102283.41;;;9.58;43.99
75794;BME280;64418;47.536;19.074;2022-12-18T08:05:16;102282.94;;;10.93;42.00
75794;BME280;64418;47.536;19.074;2022-12-18T08:07:42;102285.75;;;11.09;40.69
75794;BME280;64418;47.536;19.074;2022-12-18T08:10:08;102287.75;;;11.49;38.90
75794;BME280;64418;47.536;19.074;2022-12-18T08:12:34;102297.19;;;11.87;38.63
75794;BME280;64418;47.536;19.074;2022-12-18T08:15:00;102299.94;;;12.27;36.61
75794;BME280;64418;47.536;19.074;2022-12-18T08:17:25;102303.94;;;12.80;35.57
75794;BME280;64418;47.536;19.074;2022-12-18T08:19:53;102301.72;;;13.30;33.61
75794;BME280;64418;47.536;19.074;2022-12-18T08:22:19;102305.84;;;13.26;33.55
75794;BME280;64418;47.536;19.074;2022-12-18T08:24:45;102303.63;;;13.61;33.52
75794;BME280;64418;47.536;19.074;2022-12-18T08:27:11;102311.50;;;13.56;32.21
75794;BME280;64418;47.536;19.074;2022-12-18T08:29:36;102315.03;;;14.10;32.63
75794;BME280;64418;47.536;19.074;2022-12-18T08:32:02;102311.28;;;14.85;32.38
75794;BME280;64418;47.536;19.074;2022-12-18T08:34:28;102311.22;;;15.08;30.60
75794;BME280;64418;47.536;19.074;2022-12-18T08:36:55;102317.28;;;15.69;30.25
75794;BME280;64418;47.536;19.074;2022-12-18T08:39:21;102314.16;;;15.72;27.87
75794;BME280;64418;47.536;19.074;2022-12-18T08:41:47;102317.31;;;16.11;27.60
75794;BME280;64418;47.536;19.074;2022-12-18T08:44:13;102310.00;;;16.61;29.13
75794;BME280;64418;47.536;19.074;2022-12-18T08:46:42;102310.59;;;16.84;27.25
75794;BME280;64418;47.536;19.074;2022-12-18T08:49:10;102307.56;;;16.23;27.23
75794;BME280;64418;47.536;19.074;2022-12-18T08:51:36;102316.62;;;17.07;25.68
75794;BME280;64418;47.536;19.074;2022-12-18T08:54:05;102313.78;;;17.63;25.28
75794;BME280;64418;47.536;19.074;2022-12-18T08:56:31;102328.78;;;17.80;25.09
75794;BME280;64418;47.536;19.074;2022-12-18T08:58:57;102332.47;;;18.33;24.61
75794;BME280;64418;47.536;19.074;2022-12-18T09:01:23;102329.53;;;18.35;23.26
75794;BME280;64418;47.536;19.074;2022-12-18T09:03:49;102331.87;;;18.84;22.94
75794;BME280;64418;47.536;19.074;2022-12-18T09:06:17;102337.78;;;18.94;22.47
75794;BME280;64418;47.536;19.074;2022-12-18T09:08:43;102345.88;;;19.53;22.05
75794;BME280;64418;47.536;19.074;2022-12-18T09:11:14;102348.03;;;19.44;22.44
75794;BME280;64418;47.536;19.074;2022-12-18T09:13:40;102345.06;;;19.46;22.46
75794;BME280;64418;47.536;19.074;2022-12-18T09:16:06;102355.34;;;19.70;21.55
75794;BME280;64418;47.536;19.074;2022-12-18T09:18:33;102358.81;;;20.35;20.24
75794;BME280;64418;47.536;19.074;2022-12-18T09:20:58;102358.75;;;21.16;20.43
75794;BME280;64418;47.536;19.074;2022-12-18T09:23:25;102344.87;;;20.79;19.66
75794;BME280;64418;47.536;19.074;2022-12-18T09:25:51;102353.69;;;21.67;20.06
75794;BME280;64418;47.536;19.074;2022-12-18T09:28:19;102341.22;;;21.46;20.11
75794;BME280;64418;47.536;19.074;2022-12-18T09:30:47;102353.38;;;21.93;18.57
75794;BME280;64418;47.536;19.074;2022-12-18T09:33:13;102354.50;;;22.04;19.30
75794;BME280;64418;47.536;19.074;2022-12-18T09:35:41;102345.72;;;21.23;19.81
75794;BME280;64418;47.536;19.074;2022-12-18T09:38:08;102344.63;;;21.78;18.90
75794;BME280;64418;47.536;19.074;2022-12-18T09:40:42;102343.41;;;21.74;19.39
75794;BME280;64418;47.536;19.074;2022-12-18T09:43:14;102350.34;;;22.25;17.81
75794;BME280;64418;47.536;19.074;2022-12-18T09:45:47;102348.53;;;22.60;17.85
75794;BME280;64418;47.536;19.074;2022-12-18T09:48:19;102342.19;;;22.18;17.60
75794;BME280;64418;47.536;19.074;2022-12-18T09:50:48;102348.28;;;22.50;18.22
75794;BME280;64418;47.536;19.074;2022-12-18T09:53:19;102348.81;;;22.93;17.84
75794;BME280;64418;47.536;19.074;2022-12-18T09:55:48;102348.75;;;22.58;17.56
75794;BME280;64418;47.536;19.074;2022-12-18T09:58:20;102345.59;;;22.85;17.58
75794;BME280;64418;47.536;19.074;2022-12-18T10:00:53;102337.16;;;23.03;17.52
75794;BME280;64418;47.536;19.074;2022-12-18T10:03:19;102342.22;;;23.69;16.76
75794;BME280;64418;47.536;19.074;2022-12-18T10:05:53;102340.00;;;23.55;16.33
75794;BME280;64418;47.536;19.074;2022-12-18T10:08:27;102333.09;;;23.57;16.58
75794;BME280;64418;47.536;19.074;2022-12-18T10:11:01;102333.41;;;22.74;17.66
75794;BME280;64418;47.536;19.074;2022-12-18T10:13:33;102341.87;;;22.38;17.95
75794;BME280;64418;47.536;19.074;2022-12-18T10:16:09;102333.75;;;23.36;17.30
75794;BME280;64418;47.536;19.074;2022-12-18T10:18:55;102337.75;;;23.17;16.99
75794;BME280;64418;47.536;19.074;2022-12-18T10:21:31;102330.84;;;23.54;15.61
75794;BME280;64418;47.536;19.074;2022-12-18T10:24:08;102329.97;;;24.22;15.45
75794;BME280;64418;47.536;19.074;2022-12-18T10:26:38;102331.84;;;24.33;15.19
75794;BME280;64418;47.536;19.074;2022-12-18T10:29:10;102339.75;;;24.41;15.88
75794;BME280;64418;47.536;19.074;2022-12-18T10:31:39;102325.66;;;24.92;15.41
75794;BME280;64418;47.536;19.074;2022-12-18T10:34:09;102329.72;;;25.45;14.62
75794;BME280;64418;47.536;19.074;2022-12-18T10:36:35;102321.19;;;25.30;14.34
75794;BME280;64418;47.536;19.074;2022-12-18T10:39:14;102322.13;;;26.64;14.50
75794;BME280;64418;47.536;19.074;2022-12-18T10:41:41;102326.53;;;26.60;13.89
75794;BME280;64418;47.536;19.074;2022-12-18T10:44:12;102325.00;;;25.46;14.20
75794;BME280;64418;47.536;19.074;2022-12-18T10:46:41;102328.25;;;25.59;14.31
75794;BME280;64418;47.536;19.074;2022-12-18T10:49:19;102321.19;;;25.30;14.80
75794;BME280;64418;47.536;19.074;2022-12-18T10:51:45;102326.69;;;25.90;13.89
75794;BME280;64418;47.536;19.074;2022-12-18T10:54:14;102326.69;;;25.68;14.05
75794;BME280;64418;47.536;19.074;2022-12-18T10:56:41;102318.69;;;25.12;14.15
75794;BME280;64418;47.536;19.074;2022-12-18T10:59:10;102320.28;;;25.90;14.18
75794;BME280;64418;47.536;19.074;2022-12-18T11:01:49;102315.84;;;25.67;14.48
75794;BME280;64418;47.536;19.074;2022-12-18T11:04:18;102309.62;;;25.16;13.95
75794;BME280;64418;47.536;19.074;2022-12-18T11:06:54;102315.44;;;25.15;14.25
75794;BME280;64418;47.536;19.074;2022-12-18T11:09:21;102308.56;;;25.61;14.29
75794;BME280;64418;47.536;19.074;2022-12-18T11:11:48;102307.13;;;25.15;14.81
75794;BME280;64418;47.536;19.074;2022-12-18T11:14:18;102307.13;;;25.15;13.96
75794;BME280;64418;47.536;19.074;2022-12-18T11:16:49;102307.44;;;25.18;14.34
75794;BME280;64418;47.536;19.074;2022-12-18T11:19:26;102300.16;;;25.77;14.35
75794;BME280;64418;47.536;19.074;2022-12-18T11:21:54;102298.88;;;25.63;13.87
75794;BME280;64418;47.536;19.074;2022-12-18T11:24:26;102309.88;;;26.02;13.96
75794;BME280;64418;47.536;19.074;2022-12-18T11:26:53;102309.41;;;26.15;13.97
75794;BME280;64418;47.536;19.074;2022-12-18T11:29:26;102308.44;;;26.58;13.80
75794;BME280;64418;47.536;19.074;2022-12-18T11:32:20;102310.34;;;25.50;14.06
75794;BME280;64418;47.536;19.074;2022-12-18T11:34:49;102309.13;;;25.41;14.73
75794;BME280;64418;47.536;19.074;2022-12-18T11:37:17;102306.00;;;25.81;14.60
75794;BME280;64418;47.536;19.074;2022-12-18T11:39:49;102296.03;;;25.58;14.34
75794;BME280;64418;47.536;19.074;2022-12-18T11:42:20;102292.78;;;25.23;14.34
75794;BME280;64418;47.536;19.074;2022-12-18T11:44:50;102287.72;;;24.81;14.31
75794;BME280;64418;47.536;19.074;2022-12-18T11:47:26;102283.47;;;24.40;14.75
75794;BME280;64418;47.536;19.074;2022-12-18T11:49:56;102288.97;;;23.90;14.94
75794;BME280;64418;47.536;19.074;2022-12-18T11:52:27;102282.44;;;24.97;14.12
75794;BME280;64418;47.536;19.074;2022-12-18T11:54:58;102285.16;;;25.35;14.08
75794;BME280;64418;47.536;19.074;2022-12-18T11:57:31;102275.25;;;24.45;14.24
75794;BME280;64418;47.536;19.074;2022-12-18T12:00:03;102276.56;;;24.76;14.52
75794;BME280;64418;47.536;19.074;2022-12-18T12:02:56;102263.97;;;24.85;14.01
75794;BME280;64418;47.536;19.074;2022-12-18T12:05:34;102262.72;;;24.76;13.99
75794;BME280;64418;47.536;19.074;2022-12-18T12:08:09;102261.31;;;24.24;14.49
75794;BME280;64418;47.536;19.074;2022-12-18T12:10:49;102263.19;;;23.90;14.60
75794;BME280;64418;47.536;19.074;2022-12-18T12:13:30;102260.09;;;24.03;14.60
75794;BME280;64418;47.536;19.074;2022-12-18T12:16:09;102258.81;;;23.49;14.95
75794;BME280;64418;47.536;19.074;2022-12-18T12:18:53;102265.22;;;23.66;14.83
75794;BME280;64418;47.536;19.074;2022-12-18T12:21:26;102256.87;;;23.38;14.99
75794;BME280;64418;47.536;19.074;2022-12-18T12:23:58;102249.63;;;22.97;15.55
75794;BME280;64418;47.536;19.074;2022-12-18T12:26:29;102258.94;;;22.79;15.85
75794;BME280;64418;47.536;19.074;2022-12-18T12:29:06;102257.72;;;22.87;15.70
75794;BME280;64418;47.536;19.074;2022-12-18T12:31:59;102251.31;;;21.57;16.60
75794;BME280;64418;47.536;19.074;2022-12-18T12:34:34;102263.16;;;21.46;16.54
75794;BME280;64418;47.536;19.074;2022-12-18T12:37:15;102260.69;;;21.38;17.12
75794;BME280;64418;47.536;19.074;2022-12-18T12:39:47;102262.78;;;21.72;16.67
75794;BME280;64418;47.536;19.074;2022-12-18T12:42:18;102261.34;;;21.70;17.12
75794;BME280;64418;47.536;19.074;2022-12-18T12:44:48;102259.47;;;20.97;17.46
75794;BME280;64418;47.536;19.074;2022-12-18T12:47:18;102261.16;;;20.98;17.44